Atikokan, Ontario

8:38 AM CDT on September 22, 2014 (GMT -0500)
MesoWest ATIKOKAN 8SE ON CN | Change Station
CLOSE
Current Station
Personal Weather Station
Location: Atikokan, ON
Elevation: 1469 ft
Nearby Weather Stations

Elev 1469 ft 48.71 °N, 91.47 °W | Updated 38 minutes ago

Clear
Clear
48 °F
Feels Like 47 °F
N
4
Wind Variable Wind from WSW
Gusts 10.0 mph

Today is forecast to be nearly the same temperature as yesterday.

Today
High -- | Low -- °F
--% Chance of Precip.
Yesterday
High -- | Low -- °F
Precip. -- in
6:53 AM 7:04 PM
Waning Crescent, 3% visible
Pressure 30.16 in
Visibility 10.0 miles
Clouds Clear
Windchill 47 °F
Dew Point 46 °F
Humidity 94%
Rainfall -999.00 in
Snow Depth Not available.
UV 1 out of 12
Pollen Not available.
Air Quality Not available.
Flu Activity Not available.
METAR KCDD 221330Z AUTO 00000KT 10SM CLR 08/08 A3016 RMK AO2

More Conditions Fewer Conditions

Pressure 30.16 in
Visibility 10.0 miles
Clouds Clear
Windchill 47 °F
Dew Point 46 °F
Humidity 94%
Rainfall -999.00 in
Snow Depth Not available.
UV 1 out of 12
Pollen Not available.
Air Quality Not available.
Flu Activity Not available.
METAR KCDD 221330Z AUTO 00000KT 10SM CLR 08/08 A3016 RMK AO2

More Conditions Fewer Conditions

10-Day Weather Forecast

Almanac

Astronomy

Sep. 22, 2014 Rise Set
Actual Time 6:53 AM CDT 7:04 PM CDT
Civil Twilight 6:21 AM CDT 7:35 PM CDT
Nautical Twilight 5:44 AM CDT 8:12 PM CDT
Astronomical Twilight 5:06 AM CDT 8:50 PM CDT
Moon 5:16 AM CDT 6:15 PM CDT
Length of Visible Light 13h 14m
Length of Day
12h 11m
Tomorrow will be 3m 33s shorter.
Waning Crescent, 3% of the Moon is Illuminated
Today
Waning Crescent
Sep 24
New
Oct 1
First Quarter
Oct 8
Full
Oct 15
Last Quarter

Yesterday's Extremes

Country Highs Country Lows

Community

WunderPhotos

Upload Photos

1,755,429 photos uploaded!

WunderBlogs® & News

Nearby

Snow Depth

Not available.

Earthquake Activity

City Distance Mag. Time & Date
No recent earthquake activity has been reported nearby.
Minimum magnitude displayed is 2.5.

Coastal Water Temperatures

Place Temperature
No Stations Reporting

Nearby Weather Stations